sensor_id;sensor_type;location;lat;lon;timestamp;temperature;humidity
43991;DHT22;29654;50.784;20.604;2022-10-16T00:02:48;19.30;51.80
43991;DHT22;29654;50.784;20.604;2022-10-16T00:07:51;19.20;52.00
43991;DHT22;29654;50.784;20.604;2022-10-16T00:13:08;19.20;52.20
43991;DHT22;29654;50.784;20.604;2022-10-16T00:18:27;19.20;52.70
43991;DHT22;29654;50.784;20.604;2022-10-16T00:23:31;19.20;52.50
43991;DHT22;29654;50.784;20.604;2022-10-16T00:28:39;19.20;52.30
43991;DHT22;29654;50.784;20.604;2022-10-16T00:33:42;19.30;52.50
43991;DHT22;29654;50.784;20.604;2022-10-16T00:38:46;19.30;52.50
43991;DHT22;29654;50.784;20.604;2022-10-16T00:43:53;19.30;52.50
43991;DHT22;29654;50.784;20.604;2022-10-16T00:49:03;19.40;53.20
43991;DHT22;29654;50.784;20.604;2022-10-16T00:54:15;19.40;52.40
43991;DHT22;29654;50.784;20.604;2022-10-16T00:59:26;19.40;52.40
43991;DHT22;29654;50.784;20.604;2022-10-16T01:04:34;19.50;52.50
43991;DHT22;29654;50.784;20.604;2022-10-16T01:09:47;19.50;52.30
43991;DHT22;29654;50.784;20.604;2022-10-16T01:15:02;19.50;52.60
43991;DHT22;29654;50.784;20.604;2022-10-16T01:20:17;19.50;52.50
43991;DHT22;29654;50.784;20.604;2022-10-16T01:25:31;19.50;52.40
43991;DHT22;29654;50.784;20.604;2022-10-16T01:30:45;19.60;52.50
43991;DHT22;29654;50.784;20.604;2022-10-16T01:35:58;19.60;52.30
43991;DHT22;29654;50.784;20.604;2022-10-16T01:41:08;19.60;52.50
43991;DHT22;29654;50.784;20.604;2022-10-16T01:46:17;19.50;52.30
43991;DHT22;29654;50.784;20.604;2022-10-16T01:51:22;19.50;52.30
43991;DHT22;29654;50.784;20.604;2022-10-16T01:56:26;19.50;52.30
43991;DHT22;29654;50.784;20.604;2022-10-16T02:01:33;19.40;52.40
43991;DHT22;29654;50.784;20.604;2022-10-16T02:06:38;19.40;52.50
43991;DHT22;29654;50.784;20.604;2022-10-16T02:11:41;19.40;52.50
43991;DHT22;29654;50.784;20.604;2022-10-16T02:16:46;19.40;52.60
43991;DHT22;29654;50.784;20.604;2022-10-16T02:21:51;19.40;52.70
43991;DHT22;29654;50.784;20.604;2022-10-16T02:27:01;19.40;52.60
43991;DHT22;29654;50.784;20.604;2022-10-16T02:32:13;19.40;52.70
43991;DHT22;29654;50.784;20.604;2022-10-16T02:37:19;19.40;52.70
43991;DHT22;29654;50.784;20.604;2022-10-16T02:42:28;19.40;52.60
43991;DHT22;29654;50.784;20.604;2022-10-16T02:47:33;19.40;52.70
43991;DHT22;29654;50.784;20.604;2022-10-16T02:52:36;19.40;52.50
43991;DHT22;29654;50.784;20.604;2022-10-16T02:57:41;19.40;52.40
43991;DHT22;29654;50.784;20.604;2022-10-16T03:02:46;19.40;52.50
43991;DHT22;29654;50.784;20.604;2022-10-16T03:07:49;19.40;52.50
43991;DHT22;29654;50.784;20.604;2022-10-16T03:12:53;19.30;52.20
43991;DHT22;29654;50.784;20.604;2022-10-16T03:17:59;19.40;52.50
43991;DHT22;29654;50.784;20.604;2022-10-16T03:23:02;19.30;52.40
43991;DHT22;29654;50.784;20.604;2022-10-16T03:28:05;19.30;52.40
43991;DHT22;29654;50.784;20.604;2022-10-16T03:33:10;19.30;52.60
43991;DHT22;29654;50.784;20.604;2022-10-16T03:38:13;19.30;52.60
43991;DHT22;29654;50.784;20.604;2022-10-16T03:43:16;19.30;52.40
43991;DHT22;29654;50.784;20.604;2022-10-16T03:48:20;19.30;52.50
43991;DHT22;29654;50.784;20.604;2022-10-16T03:53:23;19.40;52.60
43991;DHT22;29654;50.784;20.604;2022-10-16T03:58:26;19.40;52.60
43991;DHT22;29654;50.784;20.604;2022-10-16T04:03:31;19.40;52.50
43991;DHT22;29654;50.784;20.604;2022-10-16T04:08:34;19.40;52.60
43991;DHT22;29654;50.784;20.604;2022-10-16T04:13:37;19.40;52.50
43991;DHT22;29654;50.784;20.604;2022-10-16T04:18:42;19.40;52.30
43991;DHT22;29654;50.784;20.604;2022-10-16T04:23:45;19.40;52.40
43991;DHT22;29654;50.784;20.604;2022-10-16T04:28:48;19.40;52.40
43991;DHT22;29654;50.784;20.604;2022-10-16T04:33:52;19.50;52.60
43991;DHT22;29654;50.784;20.604;2022-10-16T04:38:55;19.50;52.60
43991;DHT22;29654;50.784;20.604;2022-10-16T04:43:58;19.50;52.50
43991;DHT22;29654;50.784;20.604;2022-10-16T04:49:03;19.50;52.60
43991;DHT22;29654;50.784;20.604;2022-10-16T04:54:06;19.50;52.70
43991;DHT22;29654;50.784;20.604;2022-10-16T04:59:09;19.50;52.70
43991;DHT22;29654;50.784;20.604;2022-10-16T05:04:14;19.50;52.70
43991;DHT22;29654;50.784;20.604;2022-10-16T05:09:17;19.40;52.80
43991;DHT22;29654;50.784;20.604;2022-10-16T05:14:20;19.40;52.80
43991;DHT22;29654;50.784;20.604;2022-10-16T05:19:25;19.30;52.70
43991;DHT22;29654;50.784;20.604;2022-10-16T05:24:28;19.30;52.80
43991;DHT22;29654;50.784;20.604;2022-10-16T05:29:31;19.30;52.80
43991;DHT22;29654;50.784;20.604;2022-10-16T05:34:36;19.20;52.90
43991;DHT22;29654;50.784;20.604;2022-10-16T05:39:39;19.30;53.00
43991;DHT22;29654;50.784;20.604;2022-10-16T05:44:41;19.30;53.10
43991;DHT22;29654;50.784;20.604;2022-10-16T05:49:46;19.30;53.20
43991;DHT22;29654;50.784;20.604;2022-10-16T05:54:49;19.30;53.20
43991;DHT22;29654;50.784;20.604;2022-10-16T05:59:52;19.30;53.30
43991;DHT22;29654;50.784;20.604;2022-10-16T06:04:56;19.30;53.40
43991;DHT22;29654;50.784;20.604;2022-10-16T06:09:59;19.40;53.40
43991;DHT22;29654;50.784;20.604;2022-10-16T06:15:02;19.40;53.40
43991;DHT22;29654;50.784;20.604;2022-10-16T06:20:07;19.50;54.00
43991;DHT22;29654;50.784;20.604;2022-10-16T06:25:10;19.60;53.40
43991;DHT22;29654;50.784;20.604;2022-10-16T06:30:13;19.60;53.30
43991;DHT22;29654;50.784;20.604;2022-10-16T06:35:18;19.70;53.30
43991;DHT22;29654;50.784;20.604;2022-10-16T06:40:21;19.80;53.50
43991;DHT22;29654;50.784;20.604;2022-10-16T06:45:24;19.80;53.50
43991;DHT22;29654;50.784;20.604;2022-10-16T06:50:32;20.00;53.40
43991;DHT22;29654;50.784;20.604;2022-10-16T06:55:36;20.10;53.40
43991;DHT22;29654;50.784;20.604;2022-10-16T07:00:39;20.30;53.40
43991;DHT22;29654;50.784;20.604;2022-10-16T07:05:44;20.40;53.40
43991;DHT22;29654;50.784;20.604;2022-10-16T07:10:47;20.60;53.30
43991;DHT22;29654;50.784;20.604;2022-10-16T07:15:52;20.70;53.10
43991;DHT22;29654;50.784;20.604;2022-10-16T07:21:05;21.00;52.90
43991;DHT22;29654;50.784;20.604;2022-10-16T07:26:09;21.10;52.70
43991;DHT22;29654;50.784;20.604;2022-10-16T07:31:13;21.30;52.60
43991;DHT22;29654;50.784;20.604;2022-10-16T07:36:20;21.50;52.50
43991;DHT22;29654;50.784;20.604;2022-10-16T07:41:23;21.70;52.40
43991;DHT22;29654;50.784;20.604;2022-10-16T07:46:26;21.90;52.20
43991;DHT22;29654;50.784;20.604;2022-10-16T07:51:31;22.10;52.10
43991;DHT22;29654;50.784;20.604;2022-10-16T07:56:34;22.20;52.00
43991;DHT22;29654;50.784;20.604;2022-10-16T08:01:38;22.40;51.80
43991;DHT22;29654;50.784;20.604;2022-10-16T08:06:44;22.60;51.70
43991;DHT22;29654;50.784;20.604;2022-10-16T08:11:47;22.80;51.60
43991;DHT22;29654;50.784;20.604;2022-10-16T08:16:50;23.00;51.40
43991;DHT22;29654;50.784;20.604;2022-10-16T08:21:54;23.30;51.30
43991;DHT22;29654;50.784;20.604;2022-10-16T08:26:57;23.50;50.90
43991;DHT22;29654;50.784;20.604;2022-10-16T08:32:00;23.60;50.70
43991;DHT22;29654;50.784;20.604;2022-10-16T08:37:04;23.80;50.40
43991;DHT22;29654;50.784;20.604;2022-10-16T08:42:31;23.90;50.00
43991;DHT22;29654;50.784;20.604;2022-10-16T08:47:48;24.10;49.60
43991;DHT22;29654;50.784;20.604;2022-10-16T08:52:54;24.10;49.50
43991;DHT22;29654;50.784;20.604;2022-10-16T08:57:59;24.30;49.40
43991;DHT22;29654;50.784;20.604;2022-10-16T09:03:10;24.40;49.60
43991;DHT22;29654;50.784;20.604;2022-10-16T09:08:26;24.50;49.10
43991;DHT22;29654;50.784;20.604;2022-10-16T09:13:39;24.70;48.50
43991;DHT22;29654;50.784;20.604;2022-10-16T09:18:56;24.70;48.60
43991;DHT22;29654;50.784;20.604;2022-10-16T09:24:11;24.80;48.30
43991;DHT22;29654;50.784;20.604;2022-10-16T09:29:17;24.90;48.10
43991;DHT22;29654;50.784;20.604;2022-10-16T09:34:28;25.00;48.20
43991;DHT22;29654;50.784;20.604;2022-10-16T09:39:46;25.10;47.90
43991;DHT22;29654;50.784;20.604;2022-10-16T09:44:51;25.20;47.50
43991;DHT22;29654;50.784;20.604;2022-10-16T09:49:56;25.30;47.90
43991;DHT22;29654;50.784;20.604;2022-10-16T09:55:14;25.40;47.60
43991;DHT22;29654;50.784;20.604;2022-10-16T10:00:19;25.50;46.80
43991;DHT22;29654;50.784;20.604;2022-10-16T10:05:25;25.50;47.40
43991;DHT22;29654;50.784;20.604;2022-10-16T10:10:32;25.60;47.00
43991;DHT22;29654;50.784;20.604;2022-10-16T10:15:42;25.60;46.80
43991;DHT22;29654;50.784;20.604;2022-10-16T10:20:45;25.60;46.70
43991;DHT22;29654;50.784;20.604;2022-10-16T10:25:55;25.70;47.00
43991;DHT22;29654;50.784;20.604;2022-10-16T10:31:05;25.70;46.40
43991;DHT22;29654;50.784;20.604;2022-10-16T10:36:19;25.80;46.60
43991;DHT22;29654;50.784;20.604;2022-10-16T10:41:59;25.90;46.50
43991;DHT22;29654;50.784;20.604;2022-10-16T10:47:12;25.90;46.10
43991;DHT22;29654;50.784;20.604;2022-10-16T10:52:38;26.00;46.60
43991;DHT22;29654;50.784;20.604;2022-10-16T10:58:02;26.10;46.00
43991;DHT22;29654;50.784;20.604;2022-10-16T11:03:17;26.10;46.10
43991;DHT22;29654;50.784;20.604;2022-10-16T11:08:37;26.20;46.40
43991;DHT22;29654;50.784;20.604;2022-10-16T11:13:57;26.30;46.50
43991;DHT22;29654;50.784;20.604;2022-10-16T11:19:10;26.40;45.80
43991;DHT22;29654;50.784;20.604;2022-10-16T11:24:20;26.50;45.90
43991;DHT22;29654;50.784;20.604;2022-10-16T11:29:30;26.60;46.00
43991;DHT22;29654;50.784;20.604;2022-10-16T11:34:37;26.70;45.80
43991;DHT22;29654;50.784;20.604;2022-10-16T11:39:44;26.80;46.40
43991;DHT22;29654;50.784;20.604;2022-10-16T11:44:54;26.80;45.90
43991;DHT22;29654;50.784;20.604;2022-10-16T11:50:05;26.90;45.30
43991;DHT22;29654;50.784;20.604;2022-10-16T11:55:17;27.00;45.30
43991;DHT22;29654;50.784;20.604;2022-10-16T12:00:27;27.00;44.90
43991;DHT22;29654;50.784;20.604;2022-10-16T12:05:39;27.00;44.80
43991;DHT22;29654;50.784;20.604;2022-10-16T12:10:54;27.00;44.90
43991;DHT22;29654;50.784;20.604;2022-10-16T12:16:23;27.00;45.20
43991;DHT22;29654;50.784;20.604;2022-10-16T12:21:30;27.00;44.50
43991;DHT22;29654;50.784;20.604;2022-10-16T12:26:38;27.00;44.60
43991;DHT22;29654;50.784;20.604;2022-10-16T12:31:47;27.00;45.40
43991;DHT22;29654;50.784;20.604;2022-10-16T12:36:51;27.00;44.70
43991;DHT22;29654;50.784;20.604;2022-10-16T12:42:01;27.10;45.00
43991;DHT22;29654;50.784;20.604;2022-10-16T12:47:20;27.10;44.50
43991;DHT22;29654;50.784;20.604;2022-10-16T12:52:26;27.20;44.30
43991;DHT22;29654;50.784;20.604;2022-10-16T12:57:40;27.20;44.70
43991;DHT22;29654;50.784;20.604;2022-10-16T13:08:50;27.20;43.90
43991;DHT22;29654;50.784;20.604;2022-10-16T13:14:25;27.20;44.10
43991;DHT22;29654;50.784;20.604;2022-10-16T13:19:44;27.20;44.00
43991;DHT22;29654;50.784;20.604;2022-10-16T13:25:01;27.20;43.80
43991;DHT22;29654;50.784;20.604;2022-10-16T13:30:13;27.20;43.50
43991;DHT22;29654;50.784;20.604;2022-10-16T13:35:23;27.10;43.90
43991;DHT22;29654;50.784;20.604;2022-10-16T13:40:29;27.00;43.90
43991;DHT22;29654;50.784;20.604;2022-10-16T13:45:33;26.90;44.00
43991;DHT22;29654;50.784;20.604;2022-10-16T13:50:36;26.90;44.10
43991;DHT22;29654;50.784;20.604;2022-10-16T13:55:43;26.90;44.20
43991;DHT22;29654;50.784;20.604;2022-10-16T14:00:57;26.90;43.90
43991;DHT22;29654;50.784;20.604;2022-10-16T14:06:03;26.90;43.10
43991;DHT22;29654;50.784;20.604;2022-10-16T14:11:12;26.90;43.70
43991;DHT22;29654;50.784;20.604;2022-10-16T14:16:17;26.80;43.50
43991;DHT22;29654;50.784;20.604;2022-10-16T14:21:22;26.70;43.70
43991;DHT22;29654;50.784;20.604;2022-10-16T14:26:28;26.70;43.90
43991;DHT22;29654;50.784;20.604;2022-10-16T14:31:32;26.60;43.80
43991;DHT22;29654;50.784;20.604;2022-10-16T14:36:40;26.60;43.90
43991;DHT22;29654;50.784;20.604;2022-10-16T14:41:48;26.50;43.90
43991;DHT22;29654;50.784;20.604;2022-10-16T14:46:52;26.40;44.00
43991;DHT22;29654;50.784;20.604;2022-10-16T14:51:55;26.40;44.10
43991;DHT22;29654;50.784;20.604;2022-10-16T14:57:04;26.30;44.00
43991;DHT22;29654;50.784;20.604;2022-10-16T15:02:18;26.20;44.20
43991;DHT22;29654;50.784;20.604;2022-10-16T15:07:25;26.20;44.40
43991;DHT22;29654;50.784;20.604;2022-10-16T15:12:30;26.00;44.70
43991;DHT22;29654;50.784;20.604;2022-10-16T15:17:34;26.00;44.90
43991;DHT22;29654;50.784;20.604;2022-10-16T15:22:37;25.90;45.10
43991;DHT22;29654;50.784;20.604;2022-10-16T15:27:41;25.80;45.30
43991;DHT22;29654;50.784;20.604;2022-10-16T15:32:44;25.60;45.40
43991;DHT22;29654;50.784;20.604;2022-10-16T15:37:48;25.40;45.60
43991;DHT22;29654;50.784;20.604;2022-10-16T15:42:53;25.30;45.90
43991;DHT22;29654;50.784;20.604;2022-10-16T15:47:59;25.10;46.00
43991;DHT22;29654;50.784;20.604;2022-10-16T15:53:02;24.90;46.10
43991;DHT22;29654;50.784;20.604;2022-10-16T15:58:07;24.70;46.40
43991;DHT22;29654;50.784;20.604;2022-10-16T16:03:13;24.50;46.70
43991;DHT22;29654;50.784;20.604;2022-10-16T16:08:16;24.30;46.70
43991;DHT22;29654;50.784;20.604;2022-10-16T16:13:23;24.10;46.90
43991;DHT22;29654;50.784;20.604;2022-10-16T16:18:26;24.00;47.10
43991;DHT22;29654;50.784;20.604;2022-10-16T16:23:30;23.80;47.40
43991;DHT22;29654;50.784;20.604;2022-10-16T16:28:35;23.60;47.50
43991;DHT22;29654;50.784;20.604;2022-10-16T16:33:38;23.50;47.90
43991;DHT22;29654;50.784;20.604;2022-10-16T16:38:44;23.40;47.80
43991;DHT22;29654;50.784;20.604;2022-10-16T16:43:49;23.20;48.10
43991;DHT22;29654;50.784;20.604;2022-10-16T16:48:52;23.10;48.40
43991;DHT22;29654;50.784;20.604;2022-10-16T16:53:56;23.00;48.50
43991;DHT22;29654;50.784;20.604;2022-10-16T16:59:01;22.90;48.60
43991;DHT22;29654;50.784;20.604;2022-10-16T17:04:05;22.90;49.00
43991;DHT22;29654;50.784;20.604;2022-10-16T17:09:09;22.80;49.20
43991;DHT22;29654;50.784;20.604;2022-10-16T17:14:16;22.70;49.10
43991;DHT22;29654;50.784;20.604;2022-10-16T17:19:19;22.70;49.40
43991;DHT22;29654;50.784;20.604;2022-10-16T17:24:25;22.60;49.30
43991;DHT22;29654;50.784;20.604;2022-10-16T17:29:30;22.50;49.30
43991;DHT22;29654;50.784;20.604;2022-10-16T17:34:33;22.40;49.30
43991;DHT22;29654;50.784;20.604;2022-10-16T17:39:36;22.30;49.40
43991;DHT22;29654;50.784;20.604;2022-10-16T17:44:41;22.20;49.30
43991;DHT22;29654;50.784;20.604;2022-10-16T17:49:44;22.00;49.60
43991;DHT22;29654;50.784;20.604;2022-10-16T17:54:49;21.90;49.80
43991;DHT22;29654;50.784;20.604;2022-10-16T17:59:55;21.80;50.00
43991;DHT22;29654;50.784;20.604;2022-10-16T18:04:58;21.80;50.00
43991;DHT22;29654;50.784;20.604;2022-10-16T18:10:01;21.60;50.00
43991;DHT22;29654;50.784;20.604;2022-10-16T18:15:10;21.40;50.00
43991;DHT22;29654;50.784;20.604;2022-10-16T18:20:13;21.40;50.10
43991;DHT22;29654;50.784;20.604;2022-10-16T18:25:16;21.20;50.20
43991;DHT22;29654;50.784;20.604;2022-10-16T18:30:21;21.10;50.30
43991;DHT22;29654;50.784;20.604;2022-10-16T18:35:24;21.00;50.50
43991;DHT22;29654;50.784;20.604;2022-10-16T18:40:27;20.90;50.60
43991;DHT22;29654;50.784;20.604;2022-10-16T18:45:32;20.80;50.80
43991;DHT22;29654;50.784;20.604;2022-10-16T18:50:35;20.70;51.00
43991;DHT22;29654;50.784;20.604;2022-10-16T18:55:38;20.70;51.00
43991;DHT22;29654;50.784;20.604;2022-10-16T19:00:43;20.60;51.10
43991;DHT22;29654;50.784;20.604;2022-10-16T19:05:46;20.50;51.20
43991;DHT22;29654;50.784;20.604;2022-10-16T19:10:49;20.40;51.00
43991;DHT22;29654;50.784;20.604;2022-10-16T19:15:54;20.30;51.00
43991;DHT22;29654;50.784;20.604;2022-10-16T19:21:01;20.20;51.00
43991;DHT22;29654;50.784;20.604;2022-10-16T19:26:05;20.10;51.00
43991;DHT22;29654;50.784;20.604;2022-10-16T19:31:13;20.00;51.20
43991;DHT22;29654;50.784;20.604;2022-10-16T19:36:20;19.90;51.40
43991;DHT22;29654;50.784;20.604;2022-10-16T19:41:25;19.80;51.50
43991;DHT22;29654;50.784;20.604;2022-10-16T19:46:31;19.70;51.50
43991;DHT22;29654;50.784;20.604;2022-10-16T19:51:34;19.60;51.80
43991;DHT22;29654;50.784;20.604;2022-10-16T19:56:37;19.60;52.00
43991;DHT22;29654;50.784;20.604;2022-10-16T20:01:42;19.50;52.10
43991;DHT22;29654;50.784;20.604;2022-10-16T20:06:46;19.40;51.80
43991;DHT22;29654;50.784;20.604;2022-10-16T20:11:49;19.40;51.80
43991;DHT22;29654;50.784;20.604;2022-10-16T20:16:56;19.30;51.60
43991;DHT22;29654;50.784;20.604;2022-10-16T20:22:13;19.20;51.70
43991;DHT22;29654;50.784;20.604;2022-10-16T20:27:30;19.10;51.70
43991;DHT22;29654;50.784;20.604;2022-10-16T20:32:35;19.00;51.70
43991;DHT22;29654;50.784;20.604;2022-10-16T20:37:39;18.90;52.10
43991;DHT22;29654;50.784;20.604;2022-10-16T20:42:44;18.90;52.10
43991;DHT22;29654;50.784;20.604;2022-10-16T20:47:50;18.80;52.10
43991;DHT22;29654;50.784;20.604;2022-10-16T20:52:53;18.80;52.10
43991;DHT22;29654;50.784;20.604;2022-10-16T20:57:59;18.70;51.90
43991;DHT22;29654;50.784;20.604;2022-10-16T21:03:04;18.70;52.30
43991;DHT22;29654;50.784;20.604;2022-10-16T21:08:07;18.60;52.60
43991;DHT22;29654;50.784;20.604;2022-10-16T21:13:10;18.60;52.60
43991;DHT22;29654;50.784;20.604;2022-10-16T21:18:14;18.60;52.50
43991;DHT22;29654;50.784;20.604;2022-10-16T21:23:17;18.60;52.50
43991;DHT22;29654;50.784;20.604;2022-10-16T21:28:20;18.50;52.40
43991;DHT22;29654;50.784;20.604;2022-10-16T21:33:25;18.50;52.10
43991;DHT22;29654;50.784;20.604;2022-10-16T21:38:28;18.50;52.20
43991;DHT22;29654;50.784;20.604;2022-10-16T21:43:31;18.40;52.20
43991;DHT22;29654;50.784;20.604;2022-10-16T21:48:36;18.30;52.30
43991;DHT22;29654;50.784;20.604;2022-10-16T21:53:40;18.20;52.60
43991;DHT22;29654;50.784;20.604;2022-10-16T21:58:44;18.20;52.50
43991;DHT22;29654;50.784;20.604;2022-10-16T22:03:49;18.10;52.60
43991;DHT22;29654;50.784;20.604;2022-10-16T22:08:53;18.10;52.70
43991;DHT22;29654;50.784;20.604;2022-10-16T22:14:02;18.00;52.60
43991;DHT22;29654;50.784;20.604;2022-10-16T22:19:08;17.90;52.60
43991;DHT22;29654;50.784;20.604;2022-10-16T22:24:13;17.80;52.60
43991;DHT22;29654;50.784;20.604;2022-10-16T22:29:16;17.70;52.60
43991;DHT22;29654;50.784;20.604;2022-10-16T22:34:21;17.70;52.60
43991;DHT22;29654;50.784;20.604;2022-10-16T22:39:24;17.70;52.80
43991;DHT22;29654;50.784;20.604;2022-10-16T22:44:30;17.60;52.70
43991;DHT22;29654;50.784;20.604;2022-10-16T22:49:35;17.50;53.00
43991;DHT22;29654;50.784;20.604;2022-10-16T22:54:38;17.50;53.30
43991;DHT22;29654;50.784;20.604;2022-10-16T22:59:43;17.40;53.30
43991;DHT22;29654;50.784;20.604;2022-10-16T23:04:48;17.40;53.30
43991;DHT22;29654;50.784;20.604;2022-10-16T23:09:53;17.30;53.30
43991;DHT22;29654;50.784;20.604;2022-10-16T23:14:56;17.30;53.30
43991;DHT22;29654;50.784;20.604;2022-10-16T23:20:04;17.30;53.20
43991;DHT22;29654;50.784;20.604;2022-10-16T23:25:07;17.20;53.30
43991;DHT22;29654;50.784;20.604;2022-10-16T23:30:12;17.20;53.20
43991;DHT22;29654;50.784;20.604;2022-10-16T23:35:17;17.10;53.10
43991;DHT22;29654;50.784;20.604;2022-10-16T23:40:23;17.10;53.20
43991;DHT22;29654;50.784;20.604;2022-10-16T23:45:30;17.00;53.20
43991;DHT22;29654;50.784;20.604;2022-10-16T23:50:35;17.00;53.30
43991;DHT22;29654;50.784;20.604;2022-10-16T23:55:37;16.90;53.40
